createdAt,value
2018-12-02T00:00:09.736Z,7.10
2018-12-02T00:02:37.149Z,7.10
2018-12-02T00:05:07.172Z,7.10
2018-12-02T00:07:34.665Z,7.10
2018-12-02T00:10:02.851Z,7.10
2018-12-02T00:12:30.276Z,7.10
2018-12-02T00:14:57.725Z,7.00
2018-12-02T00:17:25.140Z,7.00
2018-12-02T00:19:52.592Z,7.00
2018-12-02T00:22:20.003Z,7.10
2018-12-02T00:24:47.441Z,7.10
2018-12-02T00:27:14.852Z,7.10
2018-12-02T00:29:42.287Z,7.10
2018-12-02T00:32:09.757Z,7.10
2018-12-02T00:34:37.184Z,7.10
2018-12-02T00:37:05.023Z,7.10
2018-12-02T00:39:32.448Z,7.20
2018-12-02T00:41:59.861Z,7.10
2018-12-02T00:44:27.293Z,7.10
2018-12-02T00:46:55.149Z,7.20
2018-12-02T00:49:22.579Z,7.20
2018-12-02T00:51:49.992Z,7.30
2018-12-02T00:54:17.442Z,7.30
2018-12-02T00:56:44.851Z,7.30
2018-12-02T00:59:12.280Z,7.30
2018-12-02T01:01:39.696Z,7.30
2018-12-02T01:04:07.146Z,7.40
2018-12-02T01:06:34.560Z,7.50
2018-12-02T01:09:01.992Z,7.40
2018-12-02T01:11:29.413Z,7.50
2018-12-02T01:13:56.836Z,7.50
2018-12-02T01:16:24.248Z,7.50
2018-12-02T01:18:51.776Z,7.50
2018-12-02T01:21:19.175Z,7.50
2018-12-02T01:23:46.595Z,7.60
2018-12-02T01:26:14.036Z,7.60
2018-12-02T01:28:41.455Z,7.60
2018-12-02T01:31:09.015Z,7.60
2018-12-02T01:33:36.446Z,7.60
2018-12-02T01:36:03.914Z,7.60
2018-12-02T01:38:31.327Z,7.50
2018-12-02T01:40:58.782Z,7.60
2018-12-02T01:43:26.199Z,7.50
2018-12-02T01:45:53.644Z,7.60
2018-12-02T01:48:21.100Z,7.60
2018-12-02T01:50:48.578Z,7.60
2018-12-02T01:53:15.995Z,7.60
2018-12-02T01:55:43.431Z,7.60
2018-12-02T01:58:10.839Z,7.60
2018-12-02T02:00:38.279Z,7.60
2018-12-02T02:03:05.720Z,7.60
2018-12-02T02:05:33.160Z,7.70
2018-12-02T02:08:00.578Z,7.60
2018-12-02T02:10:28.556Z,7.60
2018-12-02T02:12:56.136Z,7.60
2018-12-02T02:15:23.812Z,7.60
2018-12-02T02:17:51.233Z,7.60
2018-12-02T02:20:19.737Z,7.70
2018-12-02T02:22:47.327Z,7.70
2018-12-02T02:25:15.854Z,7.70
2018-12-02T02:27:44.451Z,7.80
2018-12-02T02:30:16.945Z,7.70
2018-12-02T02:32:44.391Z,7.70
2018-12-02T02:35:12.035Z,7.80
2018-12-02T02:37:39.796Z,7.80
2018-12-02T02:40:13.355Z,7.80
2018-12-02T02:42:40.788Z,7.80
2018-12-02T02:45:09.276Z,7.80
2018-12-02T02:47:36.698Z,7.80
2018-12-02T02:50:21.862Z,7.80
2018-12-02T02:52:59.480Z,7.80
2018-12-02T02:55:26.959Z,7.90
2018-12-02T02:57:54.403Z,7.90
2018-12-02T03:00:23.004Z,7.90
2018-12-02T03:02:50.424Z,8.00
2018-12-02T03:05:17.997Z,7.90
2018-12-02T03:07:45.496Z,8.00
2018-12-02T03:10:13.741Z,8.00
2018-12-02T03:12:41.303Z,8.00
2018-12-02T03:15:11.635Z,8.00
2018-12-02T03:17:39.148Z,8.00
2018-12-02T03:20:12.557Z,8.00
2018-12-02T03:22:40.850Z,8.00
2018-12-02T03:25:09.505Z,8.00
2018-12-02T03:27:37.001Z,8.00
2018-12-02T03:30:11.717Z,8.00
2018-12-02T03:32:39.429Z,8.00
2018-12-02T03:35:08.227Z,8.00
2018-12-02T03:37:35.664Z,8.00
2018-12-02T03:40:05.000Z,8.00
2018-12-02T03:42:32.453Z,8.10
2018-12-02T03:44:59.880Z,8.10
2018-12-02T03:47:27.319Z,8.10
2018-12-02T03:49:54.741Z,8.10
2018-12-02T03:52:22.181Z,8.10
2018-12-02T03:54:49.595Z,8.10
2018-12-02T03:57:17.028Z,8.20
2018-12-02T03:59:44.480Z,8.10
2018-12-02T04:02:11.924Z,8.10
2018-12-02T04:04:39.364Z,8.10
2018-12-02T04:07:06.821Z,8.10
2018-12-02T04:09:34.244Z,8.00
2018-12-02T04:12:01.693Z,8.10
2018-12-02T04:14:29.109Z,8.10
2018-12-02T04:16:56.550Z,8.20
2018-12-02T04:19:23.968Z,8.20
2018-12-02T04:21:52.116Z,8.10
2018-12-02T04:24:18.877Z,8.10
2018-12-02T04:26:46.300Z,8.10
2018-12-02T04:29:13.708Z,8.10
2018-12-02T04:31:41.169Z,8.10
2018-12-02T04:34:08.588Z,8.10
2018-12-02T04:36:36.015Z,8.10
2018-12-02T04:39:05.017Z,8.10
2018-12-02T04:41:32.471Z,8.20
2018-12-02T04:43:59.881Z,8.20
2018-12-02T04:46:27.325Z,8.20
2018-12-02T04:48:54.743Z,8.20
2018-12-02T04:51:22.176Z,8.20
2018-12-02T04:53:49.616Z,8.20
2018-12-02T04:56:17.052Z,8.20
2018-12-02T04:58:44.468Z,8.20
2018-12-02T05:01:11.907Z,8.10
2018-12-02T05:03:39.327Z,8.10
2018-12-02T05:06:06.781Z,8.10
2018-12-02T05:08:34.215Z,8.10
2018-12-02T05:11:01.632Z,8.10
2018-12-02T05:13:29.071Z,8.00
2018-12-02T05:15:56.495Z,8.00
2018-12-02T05:18:24.004Z,8.00
2018-12-02T05:20:51.420Z,8.00
2018-12-02T05:23:18.866Z,8.00
2018-12-02T05:25:46.273Z,8.00
2018-12-02T05:28:13.718Z,8.00
2018-12-02T05:30:41.133Z,8.00
2018-12-02T05:33:08.573Z,8.00
2018-12-02T05:35:36.032Z,8.00
2018-12-02T05:38:03.476Z,8.00
2018-12-02T05:40:30.892Z,8.00
2018-12-02T05:42:58.324Z,8.10
2018-12-02T05:45:25.739Z,8.00
2018-12-02T05:47:53.168Z,8.00
2018-12-02T05:50:21.444Z,8.00
2018-12-02T05:52:55.997Z,8.10
2018-12-02T05:55:24.735Z,8.10
2018-12-02T05:57:52.180Z,8.00
2018-12-02T06:00:20.591Z,8.10
2018-12-02T06:02:48.092Z,8.00
2018-12-02T06:05:15.519Z,8.00
2018-12-02T06:07:43.016Z,8.10
2018-12-02T06:10:12.565Z,8.10
2018-12-02T06:12:40.005Z,8.00
2018-12-02T06:15:09.009Z,8.10
2018-12-02T06:17:36.468Z,8.10
2018-12-02T06:20:07.317Z,8.00
2018-12-02T06:22:34.766Z,8.10
2018-12-02T06:25:02.181Z,8.10
2018-12-02T06:27:29.626Z,8.00
2018-12-02T06:29:57.040Z,8.00
2018-12-02T06:32:24.459Z,7.90
2018-12-02T06:34:51.919Z,8.00
2018-12-02T06:37:19.333Z,8.00
2018-12-02T06:39:46.929Z,8.00
2018-12-02T06:42:14.620Z,8.00
2018-12-02T06:44:42.032Z,8.00
2018-12-02T06:47:09.484Z,8.00
2018-12-02T06:49:36.926Z,8.00
2018-12-02T06:52:04.727Z,7.90
2018-12-02T06:54:32.161Z,7.90
2018-12-02T06:56:59.582Z,8.00
2018-12-02T06:59:47.117Z,8.00
2018-12-02T07:02:25.684Z,8.00
2018-12-02T07:04:53.092Z,8.00
2018-12-02T07:07:20.524Z,8.10
2018-12-02T07:09:47.960Z,8.00
2018-12-02T07:12:15.413Z,8.10
2018-12-02T07:14:42.868Z,8.10
2018-12-02T07:17:10.292Z,8.00
2018-12-02T07:19:40.868Z,8.10
2018-12-02T07:22:14.460Z,8.20
2018-12-02T07:24:48.740Z,8.20
2018-12-02T07:27:16.166Z,8.10
2018-12-02T07:29:43.721Z,8.10
2018-12-02T07:32:11.164Z,8.20
2018-12-02T07:34:38.600Z,8.20
2018-12-02T07:37:13.841Z,8.30
2018-12-02T07:40:48.445Z,8.30
2018-12-02T07:43:15.883Z,8.30
2018-12-02T07:45:43.310Z,8.30
2018-12-02T07:48:10.748Z,8.30
2018-12-02T07:50:38.184Z,8.30
2018-12-02T07:53:05.686Z,8.30
2018-12-02T07:55:33.219Z,8.30
2018-12-02T07:58:00.651Z,8.30
2018-12-02T08:00:28.069Z,8.30
2018-12-02T08:02:55.509Z,8.30
2018-12-02T08:05:22.927Z,8.40
2018-12-02T08:07:50.926Z,8.40
2018-12-02T08:10:18.740Z,8.40
2018-12-02T08:12:46.194Z,8.50
2018-12-02T08:15:14.800Z,8.50
2018-12-02T08:17:42.221Z,8.50
2018-12-02T08:20:14.371Z,8.50
2018-12-02T08:22:41.798Z,8.50
2018-12-02T08:25:11.421Z,8.50
2018-12-02T08:27:38.860Z,8.60
2018-12-02T08:30:24.197Z,8.50
2018-12-02T08:32:51.739Z,8.60
2018-12-02T08:35:20.488Z,8.50
2018-12-02T08:37:49.476Z,8.60
2018-12-02T08:40:16.908Z,8.60
2018-12-02T08:42:44.330Z,8.70
2018-12-02T08:45:13.817Z,8.80
2018-12-02T08:47:42.149Z,8.80
2018-12-02T08:50:11.589Z,8.70
2018-12-02T08:52:39.031Z,8.80
2018-12-02T08:55:07.817Z,8.80
2018-12-02T08:57:35.242Z,8.80
2018-12-02T09:00:03.187Z,8.80
2018-12-02T09:02:30.604Z,8.80
2018-12-02T09:04:58.032Z,8.80
2018-12-02T09:07:25.506Z,8.80
2018-12-02T09:09:59.362Z,8.80
2018-12-02T09:12:20.412Z,8.90
2018-12-02T09:14:47.865Z,8.90
2018-12-02T09:17:15.293Z,8.80
2018-12-02T09:19:42.765Z,8.80
2018-12-02T09:22:11.068Z,8.80
2018-12-02T09:24:38.520Z,8.90
2018-12-02T09:27:05.968Z,8.80
2018-12-02T09:29:33.421Z,10.10
2018-12-02T09:32:00.863Z,9.50
2018-12-02T09:34:28.314Z,9.20
2018-12-02T09:36:58.046Z,9.20
2018-12-02T09:39:24.023Z,9.10
2018-12-02T09:41:51.555Z,9.10
2018-12-02T09:44:19.059Z,9.10
2018-12-02T09:46:46.448Z,9.10
2018-12-02T09:49:13.900Z,9.20
2018-12-02T09:51:41.323Z,9.20
2018-12-02T09:54:08.760Z,9.20
2018-12-02T09:56:36.181Z,9.30
2018-12-02T09:59:03.660Z,9.30
2018-12-02T10:01:31.115Z,9.30
2018-12-02T10:03:58.547Z,9.30
2018-12-02T10:06:25.984Z,9.30
2018-12-02T10:08:53.505Z,9.30
2018-12-02T10:11:20.935Z,9.40
2018-12-02T10:13:48.364Z,9.50
2018-12-02T10:16:17.283Z,9.50
2018-12-02T10:18:43.240Z,9.50
2018-12-02T10:21:10.681Z,9.50
2018-12-02T10:23:38.093Z,9.60
2018-12-02T10:26:05.723Z,9.60
2018-12-02T10:28:33.133Z,9.70
2018-12-02T10:31:00.608Z,9.70
2018-12-02T10:33:28.040Z,9.80
2018-12-02T10:35:55.493Z,9.80
2018-12-02T10:38:22.905Z,9.80
2018-12-02T10:40:50.345Z,9.90
2018-12-02T10:43:17.772Z,9.80
2018-12-02T10:45:45.208Z,9.80
2018-12-02T10:48:12.628Z,9.80
2018-12-02T10:50:40.141Z,9.90
2018-12-02T10:53:10.107Z,9.80
2018-12-02T10:56:53.719Z,9.80
2018-12-02T10:59:21.172Z,9.90
2018-12-02T11:01:53.164Z,9.80
2018-12-02T11:04:20.614Z,9.90
2018-12-02T11:06:48.103Z,9.90
2018-12-02T11:09:15.533Z,10.00
2018-12-02T11:11:42.993Z,10.00
2018-12-02T11:14:10.443Z,10.00
2018-12-02T11:16:37.909Z,10.00
2018-12-02T11:19:05.395Z,10.10
2018-12-02T11:21:32.857Z,10.10
2018-12-02T11:24:00.280Z,10.20
2018-12-02T11:26:27.773Z,10.10
2018-12-02T11:28:55.209Z,10.20
2018-12-02T11:31:22.717Z,10.20
2018-12-02T11:33:50.148Z,10.20
2018-12-02T11:36:17.761Z,10.20
2018-12-02T11:38:45.183Z,10.30
2018-12-02T11:41:12.615Z,10.30
2018-12-02T11:43:40.164Z,10.30
2018-12-02T11:46:07.666Z,10.40
2018-12-02T11:48:35.336Z,10.40
2018-12-02T11:51:02.861Z,10.40
2018-12-02T11:53:30.349Z,10.40
2018-12-02T11:55:57.909Z,10.40
2018-12-02T11:58:25.331Z,10.40
2018-12-02T12:00:52.794Z,10.50
2018-12-02T12:03:20.204Z,10.50
2018-12-02T12:05:47.641Z,10.50
2018-12-02T12:08:15.060Z,10.50
2018-12-02T12:10:42.541Z,10.50
2018-12-02T12:13:09.962Z,10.50
2018-12-02T12:15:37.441Z,10.50
2018-12-02T12:18:06.791Z,10.50
2018-12-02T12:20:40.339Z,10.60
2018-12-02T12:23:09.377Z,10.50
2018-12-02T12:25:36.835Z,10.60
2018-12-02T12:28:04.612Z,10.60
2018-12-02T12:30:32.388Z,10.60
2018-12-02T12:32:59.862Z,10.60
2018-12-02T12:35:27.387Z,10.60
2018-12-02T12:37:54.873Z,10.70
2018-12-02T12:40:27.417Z,10.80
2018-12-02T12:42:57.688Z,10.80
2018-12-02T12:45:25.107Z,10.80
2018-12-02T12:47:52.584Z,10.90
2018-12-02T12:50:20.020Z,10.80
2018-12-02T12:52:47.484Z,10.80
2018-12-02T12:55:16.004Z,10.80
2018-12-02T12:57:43.739Z,10.90
2018-12-02T13:00:14.150Z,10.90
2018-12-02T13:02:41.628Z,10.90
2018-12-02T13:05:11.224Z,10.90
2018-12-02T13:07:38.684Z,10.90
2018-12-02T13:10:10.650Z,11.00
2018-12-02T13:12:38.148Z,11.00
2018-12-02T13:15:09.148Z,11.00
2018-12-02T13:17:36.601Z,11.00
2018-12-02T13:20:06.800Z,10.90
2018-12-02T13:22:34.273Z,10.80
2018-12-02T13:25:01.700Z,10.80
2018-12-02T13:27:29.143Z,10.90
2018-12-02T13:29:56.559Z,10.90
2018-12-02T13:32:24.009Z,10.90
2018-12-02T13:34:51.477Z,10.90
2018-12-02T13:37:18.933Z,11.00
2018-12-02T13:39:46.362Z,11.00
2018-12-02T13:42:13.800Z,11.00
2018-12-02T13:44:41.288Z,11.00
2018-12-02T13:47:08.740Z,10.90
2018-12-02T13:49:36.290Z,10.90
2018-12-02T13:52:03.867Z,11.00
2018-12-02T13:54:35.289Z,10.90
2018-12-02T13:57:02.876Z,11.00
2018-12-02T13:59:30.312Z,11.00
2018-12-02T14:01:58.201Z,11.10
2018-12-02T14:04:25.638Z,11.10
2018-12-02T14:06:53.102Z,11.00
2018-12-02T14:09:20.533Z,11.00
2018-12-02T14:11:48.001Z,11.00
2018-12-02T14:14:15.444Z,11.00
2018-12-02T14:16:50.635Z,11.00
2018-12-02T14:19:18.073Z,11.00
2018-12-02T14:21:45.540Z,11.00
2018-12-02T14:24:12.984Z,11.00
2018-12-02T14:26:43.104Z,11.10
2018-12-02T14:29:22.432Z,11.00
2018-12-02T14:31:51.955Z,11.00
2018-12-02T14:34:19.383Z,11.00
2018-12-02T14:36:46.853Z,11.00
2018-12-02T14:39:14.284Z,11.00
2018-12-02T14:41:41.779Z,11.00
2018-12-02T14:44:09.209Z,11.00
2018-12-02T14:46:36.921Z,11.00
2018-12-02T14:49:05.056Z,11.00
2018-12-02T14:51:32.552Z,11.10
2018-12-02T14:53:59.994Z,11.00
2018-12-02T14:56:27.468Z,11.10
2018-12-02T14:58:54.889Z,11.10
2018-12-02T15:01:22.332Z,11.00
2018-12-02T15:03:49.773Z,11.00
2018-12-02T15:06:17.222Z,11.00
2018-12-02T15:08:44.661Z,11.00
2018-12-02T15:11:12.101Z,11.00
2018-12-02T15:13:39.588Z,11.10
2018-12-02T15:16:07.103Z,11.00
2018-12-02T15:18:34.532Z,11.10
2018-12-02T15:21:01.965Z,11.10
2018-12-02T15:23:29.400Z,11.10
2018-12-02T15:25:56.844Z,11.10
2018-12-02T15:28:24.300Z,11.10
2018-12-02T15:30:51.820Z,11.10
2018-12-02T15:33:19.264Z,11.20
2018-12-02T15:35:46.738Z,11.20
2018-12-02T15:38:14.192Z,11.20
2018-12-02T15:40:41.687Z,11.20
2018-12-02T15:43:09.172Z,11.10
2018-12-02T15:45:36.624Z,11.10
2018-12-02T15:48:04.105Z,11.10
2018-12-02T15:50:31.547Z,11.10
2018-12-02T15:52:59.013Z,11.10
2018-12-02T15:55:27.879Z,11.10
2018-12-02T15:57:55.579Z,11.10
2018-12-02T16:00:24.443Z,11.10
2018-12-02T16:02:51.963Z,11.10
2018-12-02T16:05:19.456Z,11.20
2018-12-02T16:07:46.984Z,11.20
2018-12-02T16:10:14.452Z,11.20
2018-12-02T16:12:43.328Z,11.10
2018-12-02T16:15:13.794Z,11.10
2018-12-02T16:17:41.485Z,11.10
2018-12-02T16:20:10.466Z,11.10
2018-12-02T16:22:37.916Z,11.20
2018-12-02T16:25:06.405Z,11.20
2018-12-02T16:27:33.936Z,11.20
2018-12-02T16:30:01.371Z,11.20
2018-12-02T16:32:28.829Z,11.20
2018-12-02T16:34:56.244Z,11.20
2018-12-02T16:37:23.696Z,11.30
2018-12-02T16:39:51.156Z,11.30
2018-12-02T16:42:18.629Z,11.30
2018-12-02T16:44:46.051Z,11.20
2018-12-02T16:47:13.508Z,11.20
2018-12-02T16:49:40.924Z,11.20
2018-12-02T16:52:08.385Z,11.20
2018-12-02T16:54:35.800Z,11.20
2018-12-02T16:57:05.804Z,11.20
2018-12-02T16:59:33.843Z,11.20
2018-12-02T17:02:05.310Z,11.30
2018-12-02T17:04:31.163Z,11.20
2018-12-02T17:06:58.611Z,11.20
2018-12-02T17:09:26.081Z,11.10
2018-12-02T17:11:53.510Z,11.20
2018-12-02T17:14:21.003Z,11.20
2018-12-02T17:16:48.508Z,11.10
2018-12-02T17:19:15.980Z,11.10
2018-12-02T17:21:43.494Z,11.20
2018-12-02T17:24:11.197Z,11.20
2018-12-02T17:26:38.805Z,11.20
2018-12-02T17:29:08.694Z,11.20
2018-12-02T17:31:42.078Z,11.20
2018-12-02T17:34:09.617Z,11.10
2018-12-02T17:36:37.040Z,11.10
2018-12-02T17:39:14.200Z,11.20
2018-12-02T17:41:44.269Z,11.10
2018-12-02T17:44:10.702Z,11.10
2018-12-02T17:46:38.117Z,11.10
2018-12-02T17:49:05.765Z,11.10
2018-12-02T17:51:33.217Z,11.00
2018-12-02T17:54:00.679Z,11.00
2018-12-02T17:56:28.219Z,11.10
2018-12-02T17:58:55.679Z,11.00
2018-12-02T18:01:23.095Z,11.00
2018-12-02T18:03:51.112Z,11.10
2018-12-02T18:06:18.573Z,11.00
2018-12-02T18:08:46.080Z,11.00
2018-12-02T18:11:13.504Z,11.00
2018-12-02T18:13:40.964Z,11.10
2018-12-02T18:16:08.390Z,11.00
2018-12-02T18:18:35.859Z,11.10
2018-12-02T18:21:03.298Z,11.00
2018-12-02T18:23:30.788Z,11.00
2018-12-02T18:25:58.217Z,11.00
2018-12-02T18:28:25.709Z,11.00
2018-12-02T18:30:53.144Z,11.00
2018-12-02T18:33:20.588Z,11.00
2018-12-02T18:35:59.876Z,11.00
2018-12-02T18:38:28.929Z,11.00
2018-12-02T18:41:06.436Z,11.00
2018-12-02T18:43:33.903Z,11.00
2018-12-02T18:46:01.323Z,11.00
2018-12-02T18:48:28.781Z,11.00
2018-12-02T18:50:56.196Z,11.00
2018-12-02T18:53:23.685Z,11.00
2018-12-02T18:55:51.159Z,11.10
2018-12-02T18:58:19.542Z,11.10
2018-12-02T19:00:47.527Z,11.10
2018-12-02T19:03:16.669Z,11.00
2018-12-02T19:05:44.428Z,11.10
2018-12-02T19:08:11.987Z,11.10
2018-12-02T19:10:39.628Z,11.10
2018-12-02T19:13:07.060Z,11.10
2018-12-02T19:15:34.468Z,11.20
2018-12-02T19:18:01.880Z,11.10
2018-12-02T19:20:30.094Z,11.20
2018-12-02T19:22:59.279Z,11.20
2018-12-02T19:25:28.012Z,11.20
2018-12-02T19:27:55.452Z,11.30
2018-12-02T19:30:22.926Z,11.30
2018-12-02T19:32:50.391Z,11.20
2018-12-02T19:35:19.669Z,11.20
2018-12-02T19:37:48.711Z,11.20
2018-12-02T19:40:17.702Z,11.20
2018-12-02T19:42:45.152Z,11.20
2018-12-02T19:45:15.753Z,11.20
2018-12-02T19:47:43.236Z,11.20
2018-12-02T19:50:12.008Z,11.10
2018-12-02T19:52:39.465Z,11.20
2018-12-02T19:55:09.263Z,11.20
2018-12-02T19:57:36.687Z,11.10
2018-12-02T20:00:12.460Z,11.10
2018-12-02T20:02:39.876Z,11.10
2018-12-02T20:05:07.400Z,11.10
2018-12-02T20:07:34.821Z,11.10
2018-12-02T20:10:02.532Z,11.00
2018-12-02T20:12:29.996Z,11.10
2018-12-02T20:14:57.444Z,11.10
2018-12-02T20:17:24.849Z,11.00
2018-12-02T20:19:57.916Z,10.90
2018-12-02T20:22:25.379Z,11.00
2018-12-02T20:24:52.807Z,10.90
2018-12-02T20:27:20.225Z,10.90
2018-12-02T20:29:47.660Z,10.90
2018-12-02T20:32:15.092Z,10.90
2018-12-02T20:34:42.527Z,10.90
2018-12-02T20:37:09.941Z,10.90
2018-12-02T20:39:37.377Z,10.90
2018-12-02T20:42:05.344Z,10.90
2018-12-02T20:44:32.770Z,10.90
2018-12-02T20:47:00.246Z,11.00
2018-12-02T20:49:27.691Z,11.00
2018-12-02T20:51:55.132Z,11.00
2018-12-02T20:54:22.624Z,11.10
2018-12-02T20:56:50.060Z,11.10
2018-12-02T20:59:17.496Z,11.20
2018-12-02T21:01:44.945Z,11.20
2018-12-02T21:04:13.376Z,11.20
2018-12-02T21:06:40.829Z,11.20
2018-12-02T21:09:08.309Z,11.20
2018-12-02T21:11:40.541Z,11.30
2018-12-02T21:14:03.297Z,11.40
2018-12-02T21:16:30.749Z,11.30
2018-12-02T21:18:58.182Z,11.30
2018-12-02T21:21:25.643Z,11.30
2018-12-02T21:23:53.108Z,11.30
2018-12-02T21:26:20.569Z,11.30
2018-12-02T21:28:47.997Z,11.40
2018-12-02T21:31:15.437Z,11.50
2018-12-02T21:33:42.859Z,11.50
2018-12-02T21:36:10.340Z,11.40
2018-12-02T21:38:37.832Z,11.40
2018-12-02T21:41:05.420Z,11.40
2018-12-02T21:43:32.896Z,11.40
2018-12-02T21:46:00.371Z,11.40
2018-12-02T21:48:27.800Z,11.40
2018-12-02T21:50:55.788Z,11.40
2018-12-02T21:53:23.280Z,11.40
2018-12-02T21:55:50.729Z,11.40
2018-12-02T21:58:18.169Z,11.40
2018-12-02T22:00:51.392Z,11.30
2018-12-02T22:03:18.824Z,11.30
2018-12-02T22:05:46.286Z,11.30
2018-12-02T22:08:13.727Z,11.30
2018-12-02T22:10:41.290Z,11.30
2018-12-02T22:13:08.902Z,11.30
2018-12-02T22:15:36.442Z,11.30
2018-12-02T22:18:04.237Z,11.30
2018-12-02T22:20:31.693Z,11.30
2018-12-02T22:22:59.150Z,11.30
2018-12-02T22:25:26.637Z,11.30
2018-12-02T22:27:55.117Z,11.30
2018-12-02T22:30:23.390Z,11.20
2018-12-02T22:32:50.985Z,11.30
2018-12-02T22:35:18.451Z,11.30
2018-12-02T22:37:46.361Z,11.30
2018-12-02T22:40:17.969Z,11.30
2018-12-02T22:42:45.525Z,11.20
2018-12-02T22:45:14.261Z,11.20
2018-12-02T22:47:41.883Z,11.30
2018-12-02T22:50:12.467Z,11.30
2018-12-02T22:52:39.971Z,11.30
2018-12-02T22:55:08.613Z,11.30
2018-12-02T22:57:36.599Z,11.30
2018-12-02T23:00:12.509Z,11.30
2018-12-02T23:02:45.707Z,11.30
2018-12-02T23:05:13.225Z,11.30
2018-12-02T23:07:40.788Z,11.30
2018-12-02T23:10:08.258Z,11.40
2018-12-02T23:12:35.795Z,11.30
2018-12-02T23:15:03.324Z,11.30
2018-12-02T23:17:30.783Z,11.40
2018-12-02T23:19:58.216Z,11.40
2018-12-02T23:22:25.771Z,11.50
2018-12-02T23:24:53.486Z,11.40
2018-12-02T23:27:20.951Z,11.50
2018-12-02T23:29:48.396Z,11.40
2018-12-02T23:32:15.860Z,11.50
2018-12-02T23:34:43.289Z,11.40
2018-12-02T23:37:10.748Z,11.50
2018-12-02T23:39:38.696Z,11.50
2018-12-02T23:42:05.753Z,11.60
2018-12-02T23:44:33.223Z,11.60
2018-12-02T23:47:00.671Z,11.60
2018-12-02T23:49:28.084Z,11.60
2018-12-02T23:51:55.520Z,11.60
2018-12-02T23:54:22.940Z,11.60
2018-12-02T23:56:50.377Z,11.60
2018-12-02T23:59:17.789Z,11.50
